Weather observations for the past three days for
Andersen, Mariana Is, Andersen Air Force Base
| Date | Time (chst) | Wind (kph) | Vis. (km) | Weather | Sky Cond. | Temperature (ºC) | Relative Humidity | Wind Chill (°C) | Heat Index (°C) | Pressure | Precipitation (cm) | ||||||
|---|---|---|---|---|---|---|---|---|---|---|---|---|---|---|---|---|---|
| Air | Dwpt | 6 hour | altimeter (cm) | sea level (mb) | 1 hr | 3 hr | 6 hr | ||||||||||
| Max. | Min. | ||||||||||||||||
| 31 | 13:55 | SW 9 | 16.09 | Partly Cloudy | FEW055 SCT210 | 27.5 | 24.3 | 83% | 31 | 75.72 | 1008.5 | ||||||
| 31 | 12:55 | W 20 | 16.09 | Mostly Cloudy | SCT019 BKN025 BKN030 BKN035 | 26 | 24 | 89% | 28 | 75.77 | 0.0 | ||||||
| 31 | 11:55 | SW 7 | 3.03 | Rain Fog/Mist | BKN014 BKN023 | 27.5 | 25.7 | 90% | 32 | 75.82 | 1009.9 | 1.4 | |||||
| 31 | 10:55 | N 9 | 16.09 | Overcast | BKN017 BKN025 OVC043 | 28 | 24 | 79% | 32 | 75.84 | 0.0 | ||||||
| 31 | 09:55 | N 6 | 16.09 | Mostly Cloudy | SCT015 BKN034 BKN046 | 28.8 | 23.9 | 29.5 | 24.6 | 75% | 33 | 75.84 | 1010.2 | ||||
| 31 | 08:55 | SW 7 | 16.09 | Partly Cloudy | FEW016 SCT023 | 28.4 | 24.4 | 79% | 33 | 75.84 | 1010.2 | ||||||
| 31 | 07:55 | SW 6 | 16.09 | Fair | CLR | 28 | 25 | 84% | 33 | 75.77 | 0.0 | ||||||
| 31 | 06:55 | SW 6 | 16.09 | Fair | CLR | 25.7 | 24.3 | 92% | 27 | 75.74 | 1008.8 | ||||||
| 31 | 05:55 | Calm | 16.09 | Fair | CLR | 24.6 | 23.5 | 94% | 25 | 75.69 | 1008.2 | ||||||
| 31 | 04:55 | SW 6 | 16.09 | Fair | CLR | 25.1 | 23.7 | 92% | 26 | 75.69 | 1008.2 | ||||||
| 31 | 03:55 | Calm | 16.09 | Fair | CLR | 25 | 24 | 94% | 26 | 75.67 | 0.0 | ||||||
| 31 | 02:55 | NW 6 | 16.09 | Partly Cloudy | SCT150 | 25 | 24 | 94% | 26 | 75.69 | 0.0 | ||||||
| 31 | 01:55 | NW 9 | 16.09 | Fair | CLR | 25.3 | 24.2 | 94% | 26 | 75.69 | 1008.2 | ||||||
| 31 | 00:55 | NW 9 | 16.09 | A Few Clouds | FEW006 FEW170 | 25.8 | 24.5 | 93% | 28 | 75.74 | 1008.8 | ||||||
| 30 | 23:55 | NW 13 | 16.09 | Mostly Cloudy | BKN008 | 26.2 | 24.9 | 93% | 29 | 75.77 | 1009.2 | ||||||
| 30 | 22:55 | NW 15 | 16.09 | Mostly Cloudy | BKN011 | 26 | 24.7 | 93% | 28 | 75.82 | 1009.9 | ||||||
| 30 | 21:55 | NW 13 | 16.09 | Mostly Cloudy | BKN025 BKN050 | 25.6 | 24.5 | 26.8 | 24.2 | 94% | 27 | 75.84 | 1010.2 | 1.42 | |||
| 30 | 20:55 | NW 13 | 16.09 | Light Rain | SCT010 BKN015 | 24.8 | 23.4 | 92% | 25 | 75.82 | 1009.9 | 0.08 | |||||
| 30 | 19:55 | NW 11 | 16.09 | Light Drizzle | SCT008 BKN020 OVC140 | 25 | 24 | 94% | 26 | 75.77 | 0.0 | ||||||
| 30 | 18:55 | NW 17 | 2.01 | Heavy Rain Fog/Mist | BKN010 OVC015 | 24.5 | 23.6 | 95% | 24 | 75.74 | 1008.8 | 1.09 | 1.14 | ||||
| 30 | 17:55 | NW 28 G 33 | 16.09 | Rain | BKN010 OVC012 | 26.1 | 24.3 | 90% | 28 | 75.72 | 1008.5 | ||||||
| 30 | 16:55 | NW 13 | 16.09 | Mostly Cloudy | FEW012 BKN020 | 26.5 | 25.2 | 93% | 30 | 75.67 | 1007.8 | 0.05 | |||||
| 30 | 15:55 | NW 19 | 4.43 | Light Rain Fog/Mist | BKN012 | 26 | 25 | 94% | 28 | 75.67 | 0.0 | ||||||
| 30 | 14:55 | NW 19 | 16.09 | Partly Cloudy | SCT017 | 29.3 | 24.4 | 75% | 34 | 75.67 | 1007.8 | ||||||
| 30 | 13:55 | NW 15 | 16.09 | Partly Cloudy | FEW013 SCT025 SCT047 | 28.6 | 26 | 86% | 35 | 75.69 | 1008.2 | 0.05 | |||||
| 30 | 12:55 | NW 24 | 16.09 | A Few Clouds | FEW019 | 30.3 | 25.1 | 74% | 37 | 75.72 | 1008.5 | ||||||
| 30 | 11:55 | NW 24 | 16.09 | Mostly Cloudy | BKN016 | 30 | 25 | 75% | 36 | 75.77 | 0.0 | ||||||
| 30 | 10:55 | NW 22 | 16.09 | Mostly Cloudy | BKN015 | 29.6 | 25.5 | 79% | 36 | 75.77 | 1009.2 | ||||||
| 30 | 09:55 | NW 24 | 16.09 | Overcast | BKN014 OVC190 | 30 | 26 | 79% | 37 | 75.77 | 0.0 | ||||||
| 30 | 08:55 | NW 17 | 16.09 | Partly Cloudy | SCT011 | 28 | 25.4 | 86% | 33 | 75.77 | 1009.2 | ||||||
| 30 | 07:55 | NW 15 | 16.09 | Partly Cloudy | SCT007 SCT014 | 27.6 | 26 | 91% | 33 | 75.77 | 1009.2 | ||||||
| 30 | 06:55 | NW 17 | 16.09 | A Few Clouds | FEW100 | 26 | 24 | 89% | 28 | 75.74 | 0.0 | ||||||
| 30 | 05:55 | NW 17 | 16.09 | Partly Cloudy | SCT014 | 26 | 25 | 94% | 28 | 75.77 | 0.0 | ||||||
| 30 | 04:55 | NW 28 | 14.48 | Rain | BKN012 | 26.3 | 25.2 | 94% | 29 | 75.74 | 1008.8 | 0.76 | |||||
| 30 | 03:55 | NW 15 | 14.48 | Heavy Rain Fog/Mist | FEW008 SCT013 BKN026 | 26 | 24.9 | 27.2 | 26 | 94% | 28 | 75.74 | 1008.8 | 0.2 | 0.2 | ||
| 30 | 02:55 | W 15 | 16.09 | Mostly Cloudy | SCT014 BKN180 | 26.6 | 25 | 91% | 30 | 75.77 | 1009.2 | ||||||
| 30 | 01:55 | NW 13 | 16.09 | Mostly Cloudy | BKN013 | 27 | 25 | 89% | 31 | 75.79 | 0.0 | ||||||
| 30 | 00:55 | NW 13 | 16.09 | Partly Cloudy | SCT013 | 27 | 25 | 89% | 31 | 75.82 | 1009.9 | ||||||
| 29 | 23:55 | NW 13 | 16.09 | Partly Cloudy | SCT012 | 27 | 25 | 89% | 31 | 75.84 | 1010.2 | ||||||
| 29 | 22:55 | NW 15 | 16.09 | Partly Cloudy | SCT012 | 26.7 | 24.7 | 89% | 30 | 75.87 | 1010.5 | ||||||
| 29 | 21:55 | NW 19 | 16.09 | Partly Cloudy | FEW013 SCT023 | 27.3 | 25.1 | 28.9 | 26.9 | 88% | 31 | 75.87 | 1010.5 | 0.1 | |||
| 29 | 20:55 | NW 17 | 16.09 | Mostly Cloudy | FEW012 BKN040 | 27 | 26 | 94% | 31 | 75.82 | 0.0 | ||||||
| 29 | 19:55 | NW 17 | 16.09 | Mostly Cloudy | SCT015 BKN040 | 27.1 | 25.5 | 91% | 31 | 75.79 | 1009.5 | ||||||
| 29 | 18:55 | NW 20 | 16.09 | Mostly Cloudy | FEW010 SCT016 BKN090 | 27.4 | 25.8 | 91% | 32 | 75.74 | 1008.8 | 0.1 | |||||
| 29 | 17:55 | NW 17 | 16.09 | Mostly Cloudy | SCT015 BKN040 | 27.6 | 25.6 | 89% | 32 | 75.69 | 1008.2 | 0.1 | |||||
| 29 | 16:55 | NW 17 | 16.09 | Light Drizzle | BKN014 BKN019 | 28 | 25.8 | 88% | 33 | 75.67 | 1007.8 | ||||||
| 29 | 15:55 | NW 17 | 16.09 | Mostly Cloudy | BKN012 | 29 | 26 | 84% | 36 | 75.64 | 0.0 | ||||||
| 29 | 14:55 | NW 20 | 16.09 | Mostly Cloudy | BKN015 | 29.5 | 25 | 77% | 35 | 75.64 | 1007.5 | ||||||
| 29 | 13:55 | NW 19 | 16.09 | Overcast | SCT014 OVC023 | 29.1 | 25.7 | 82% | 35 | 75.69 | 1008.2 | ||||||
| 29 | 12:55 | NW 19 | 16.09 | Partly Cloudy | SCT014 FEW180 SCT200 | 28.9 | 25.7 | 83% | 35 | 75.74 | 1008.8 | ||||||
| 29 | 11:55 | NW 19 | 16.09 | Mostly Cloudy | SCT014 SCT160 BKN210 | 28.9 | 25.3 | 81% | 35 | 75.79 | 1009.5 | ||||||
| 29 | 10:55 | NW 24 | 16.09 | A Few Clouds | FEW200 | 28.4 | 25.2 | 83% | 34 | 75.84 | 1010.2 | ||||||
| 29 | 09:55 | NW 24 | 16.09 | Partly Cloudy | SCT026 | 28.2 | 25.2 | 28.5 | 24.8 | 84% | 33 | 75.87 | 1010.5 | ||||
| 29 | 08:55 | W 22 | 16.09 | Overcast | FEW005 SCT035 SCT044 OVC120 | 26.1 | 24.8 | 93% | 28 | 75.9 | 1010.9 | 0.1 | |||||
| 29 | 07:55 | W 20 | 16.09 | Overcast | FEW010 BKN140 BKN160 OVC220 | 26.2 | 24.9 | 93% | 29 | 75.9 | 1010.9 | 0.05 | |||||
| 29 | 06:55 | W 22 | 11.27 | Rain Fog/Mist | FEW011 | 25.3 | 24.2 | 94% | 26 | 75.82 | 1009.9 | ||||||
| 29 | 05:55 | W 13 | 16.09 | Drizzle | SCT015 | 25.6 | 24.7 | 95% | 27 | 75.79 | 1009.5 | ||||||
| 29 | 04:55 | W 17 | 16.09 | A Few Clouds | FEW014 | 25.2 | 24.3 | 95% | 26 | 75.79 | 1009.5 | ||||||
| 29 | 03:55 | W 22 | 16.09 | Light Rain | FEW010 SCT034 | 26.2 | 24.6 | 26.5 | 25.9 | 91% | 29 | 75.79 | 1009.5 | ||||
| 29 | 02:55 | W 17 | 16.09 | A Few Clouds | FEW013 | 26.4 | 25 | 92% | 29 | 75.79 | 1009.5 | ||||||
| 29 | 00:55 | W 17 | 16.09 | Mostly Cloudy | BKN014 | 26 | 25 | 94% | 28 | 75.87 | 0.0 | ||||||
| 28 | 23:55 | W 13 | 16.09 | A Few Clouds | FEW140 | 26.1 | 24.3 | 90% | 28 | 75.9 | 1010.9 | ||||||
| 28 | 22:55 | W 15 | 16.09 | A Few Clouds | FEW140 | 26.2 | 24 | 88% | 28 | 75.92 | 1011.2 | ||||||
| 28 | 21:55 | W 15 | 16.09 | Mostly Cloudy | BKN040 | 26 | 24.4 | 26 | 25.2 | 91% | 28 | 75.9 | 1010.9 | ||||
| 28 | 20:55 | NW 17 | 16.09 | Mostly Cloudy | BKN040 | 26 | 24 | 89% | 28 | 75.82 | 0.0 | ||||||
| 28 | 19:55 | NW 19 | 16.09 | Mostly Cloudy | BKN040 | 25.5 | 23.7 | 90% | 27 | 75.74 | 1008.8 | ||||||
| 28 | 18:55 | NW 22 | 16.09 | Mostly Cloudy | BKN025 | 26 | 23 | 84% | 28 | 75.72 | 0.0 | ||||||
| 28 | 17:57 | NW 20 | 16.09 | Mostly Cloudy | BKN040 | 25.6 | 23.8 | 90% | 27 | 75.74 | 1008.8 | ||||||
| 28 | 16:55 | W 30 | 16.09 | Mostly Cloudy | SCT010 BKN030 | 25.6 | 23.8 | 90% | 27 | 75.74 | 1008.8 | ||||||
| 28 | 15:55 | W 24 | 11.27 | Mostly Cloudy | BKN012 | 26 | 24 | 89% | 28 | 75.77 | 0.0 | ||||||
| 28 | 14:55 | W 28 | 16.09 | Partly Cloudy | SCT010 SCT020 | 25.9 | 23.9 | 89% | 28 | 75.79 | 1009.5 | ||||||
| Date | Time (chst) | Wind (kph) | Vis. (km) | Weather | Sky Cond. | Air | Dwpt | Max. | Min. | Relative Humidity | Wind Chill (°C) | Heat Index (°C) | altimeter (cm) | sea level (mb) | 1 hr | 3 hr | 6 hr |
| 6 hour | |||||||||||||||||
| Temperature (ºC) | Pressure | Precipitation (cm) | |||||||||||||||